Time;durP1;ratioP1;P1;durP2;ratioP2;P2;SDS_P1;SDS_P2;PMS_P1;PMS_P2;Temp;Humidity;BMP_temperature;BMP_pressure;BME280_temperature;BME280_humidity;BME280_pressure;Samples;Min_cycle;Max_cycle;Signal;HPM_P1;HPM_P2
2023/10/13 00:02:04;;;;;;;19.80;10.88;;;16.70;99.90;;;;;;5048400;28;20056;-76
2023/10/13 00:04:35;;;;;;;22.02;12.30;;;16.70;99.90;;;;;;5049097;28;20009;-76
2023/10/13 00:07:04;;;;;;;24.25;10.55;;;16.70;99.90;;;;;;5047819;28;20040;-75
2023/10/13 00:09:32;;;;;;;25.05;10.90;;;16.70;99.90;;;;;;5032753;28;20029;-75
2023/10/13 00:11:59;;;;;;;20.85;11.35;;;16.70;99.90;;;;;;5043690;28;20017;-75
2023/10/13 00:14:33;;;;;;;24.13;11.75;;;16.70;99.90;;;;;;5047764;28;20034;-76
2023/10/13 00:17:04;;;;;;;22.70;10.52;;;16.70;99.90;;;;;;5029478;28;20030;-75
2023/10/13 00:19:45;;;;;;;22.88;11.02;;;16.70;99.90;;;;;;5047879;28;20081;-75
2023/10/13 00:22:12;;;;;;;25.70;12.10;;;16.70;99.90;;;;;;5028816;28;20045;-75
2023/10/13 00:24:54;;;;;;;20.65;10.82;;;16.70;99.90;;;;;;5046347;28;20018;-75
2023/10/13 00:27:32;;;;;;;29.80;12.23;;;16.70;99.90;;;;;;5046517;28;20026;-75
2023/10/13 00:32:44;;;;;;;19.98;11.20;;;16.70;99.90;;;;;;5044698;28;20068;-75
2023/10/13 00:35:13;;;;;;;21.25;12.88;;;16.70;99.90;;;;;;5045761;28;20033;-75
2023/10/13 00:37:44;;;;;;;23.17;12.00;;;16.60;99.90;;;;;;5045141;28;20022;-75
2023/10/13 00:40:18;;;;;;;23.58;12.68;;;16.70;99.90;;;;;;5030277;28;20018;-75
2023/10/13 00:42:53;;;;;;;19.90;11.70;;;16.70;99.90;;;;;;5030191;28;20014;-76
2023/10/13 00:45:19;;;;;;;18.83;11.65;;;16.60;99.90;;;;;;5030225;28;20048;-76
2023/10/13 00:47:56;;;;;;;25.17;13.32;;;16.70;99.90;;;;;;5047090;28;21432;-76
2023/10/13 00:50:24;;;;;;;23.92;11.95;;;16.70;99.90;;;;;;5045061;28;20022;-75
2023/10/13 00:52:54;;;;;;;23.92;12.00;;;16.60;99.90;;;;;;5046139;28;20022;-75
2023/10/13 00:55:22;;;;;;;25.13;11.65;;;16.70;99.90;;;;;;5046209;28;20012;-75
2023/10/13 00:57:57;;;;;;;20.35;10.93;;;16.60;99.90;;;;;;5047561;28;20046;-75
2023/10/13 01:00:28;;;;;;;20.42;11.50;;;16.60;99.90;;;;;;5032938;28;20026;-75
2023/10/13 01:02:56;;;;;;;22.95;10.52;;;16.60;99.90;;;;;;5029514;28;20009;-75
2023/10/13 01:05:26;;;;;;;18.75;10.63;;;16.70;99.90;;;;;;5045353;28;20018;-75
2023/10/13 01:07:55;;;;;;;24.52;10.57;;;16.70;99.90;;;;;;5034322;28;20030;-75
2023/10/13 01:10:27;;;;;;;20.67;10.10;;;16.70;99.90;;;;;;5046268;28;20032;-75
2023/10/13 01:12:56;;;;;;;19.70;9.90;;;16.70;99.90;;;;;;5046360;28;20190;-75
2023/10/13 01:15:29;;;;;;;19.83;10.02;;;16.60;99.90;;;;;;5033214;28;20045;-75
2023/10/13 01:18:16;;;;;;;20.02;9.63;;;16.70;99.90;;;;;;5043936;28;20051;-75
2023/10/13 01:20:45;;;;;;;16.90;9.85;;;16.60;99.90;;;;;;5047015;28;20028;-75
2023/10/13 01:23:18;;;;;;;17.70;10.52;;;16.70;99.90;;;;;;5029664;28;20018;-75
2023/10/13 01:25:48;;;;;;;19.83;9.63;;;16.70;99.90;;;;;;5046354;28;20040;-75
2023/10/13 01:28:18;;;;;;;18.02;10.60;;;16.70;99.90;;;;;;5032747;28;20026;-75
2023/10/13 01:30:49;;;;;;;22.13;10.38;;;16.60;99.90;;;;;;5046696;28;20025;-75
2023/10/13 01:33:25;;;;;;;18.90;10.07;;;16.60;99.90;;;;;;5030322;28;20036;-75
2023/10/13 01:35:52;;;;;;;18.67;9.77;;;16.60;99.90;;;;;;5029882;28;20045;-75
2023/10/13 01:38:18;;;;;;;20.92;9.63;;;16.70;99.90;;;;;;5044678;28;20029;-76
2023/10/13 01:40:44;;;;;;;17.50;9.82;;;16.60;99.90;;;;;;5046779;28;20030;-77
2023/10/13 01:43:11;;;;;;;22.38;9.40;;;16.60;99.90;;;;;;5029230;28;20211;-75
2023/10/13 01:45:46;;;;;;;18.58;10.13;;;16.60;99.90;;;;;;5045689;28;20037;-75
2023/10/13 01:48:16;;;;;;;24.25;11.05;;;16.70;99.90;;;;;;5049574;28;20101;-76
2023/10/13 01:50:41;;;;;;;15.48;9.75;;;16.60;99.90;;;;;;5037080;28;20028;-75
2023/10/13 01:53:14;;;;;;;21.45;9.88;;;16.70;99.90;;;;;;5049998;28;20010;-75
2023/10/13 01:55:46;;;;;;;19.15;11.05;;;16.60;99.90;;;;;;5048434;28;20097;-75
2023/10/13 01:58:22;;;;;;;26.70;11.43;;;16.70;99.90;;;;;;5034703;28;20034;-75
2023/10/13 02:00:50;;;;;;;24.90;11.98;;;16.60;99.90;;;;;;5034338;28;20022;-75
2023/10/13 02:03:21;;;;;;;22.58;12.45;;;16.60;99.90;;;;;;5049273;28;20029;-74
2023/10/13 02:05:48;;;;;;;18.80;11.38;;;16.60;99.90;;;;;;5050296;28;20430;-75
2023/10/13 02:08:24;;;;;;;20.92;11.57;;;16.60;99.90;;;;;;5049583;28;20045;-74
2023/10/13 02:11:01;;;;;;;25.17;12.75;;;16.70;99.90;;;;;;5051186;28;20020;-75
2023/10/13 02:13:29;;;;;;;20.15;11.77;;;16.60;99.90;;;;;;5031137;28;20070;-75
2023/10/13 02:15:57;;;;;;;25.30;12.70;;;16.60;99.90;;;;;;5049131;28;20034;-75
2023/10/13 02:18:26;;;;;;;26.17;11.57;;;16.60;99.90;;;;;;5034364;28;21049;-75
2023/10/13 02:20:56;;;;;;;22.75;12.50;;;16.70;99.90;;;;;;5050175;28;20009;-75
2023/10/13 02:23:29;;;;;;;24.25;13.90;;;16.70;99.90;;;;;;5049278;28;20048;-75
2023/10/13 02:26:02;;;;;;;21.65;11.93;;;16.70;99.90;;;;;;5049450;28;20034;-75
2023/10/13 02:28:33;;;;;;;18.50;11.57;;;16.60;99.90;;;;;;5040478;28;20036;-75
2023/10/13 02:31:03;;;;;;;20.95;11.70;;;16.60;99.90;;;;;;5034081;28;20035;-75
2023/10/13 02:33:31;;;;;;;20.00;10.90;;;16.70;99.90;;;;;;5051080;28;20034;-76
2023/10/13 02:35:57;;;;;;;17.77;11.60;;;16.60;99.90;;;;;;5032497;28;20018;-75
2023/10/13 02:38:32;;;;;;;26.25;11.93;;;16.70;99.90;;;;;;5046615;28;20112;-75
2023/10/13 02:41:05;;;;;;;19.85;11.65;;;16.60;99.90;;;;;;5048044;28;20041;-76
2023/10/13 02:43:33;;;;;;;19.58;12.13;;;16.60;99.90;;;;;;5046654;28;20045;-75
2023/10/13 02:46:02;;;;;;;19.77;11.23;;;16.60;99.90;;;;;;5034493;28;20041;-75
2023/10/13 02:48:39;;;;;;;25.55;11.82;;;16.70;99.90;;;;;;5039282;28;20040;-75
2023/10/13 02:51:15;;;;;;;21.90;10.77;;;16.70;99.90;;;;;;5048014;28;20032;-76
2023/10/13 02:53:52;;;;;;;22.00;11.30;;;16.70;99.90;;;;;;5050291;28;20094;-75
2023/10/13 02:56:22;;;;;;;17.35;10.95;;;16.70;99.90;;;;;;5048374;28;20100;-75
2023/10/13 02:59:05;;;;;;;21.05;11.43;;;16.70;99.90;;;;;;5046980;28;20022;-75
2023/10/13 03:01:39;;;;;;;22.35;11.77;;;16.70;99.90;;;;;;5038878;28;20029;-76
2023/10/13 03:04:12;;;;;;;21.73;11.20;;;16.70;99.90;;;;;;5047810;28;20110;-76
2023/10/13 03:06:40;;;;;;;24.35;11.73;;;16.70;99.90;;;;;;5045836;28;20018;-75
2023/10/13 03:09:14;;;;;;;23.13;11.25;;;16.70;99.90;;;;;;5048130;28;20105;-76
2023/10/13 03:11:50;;;;;;;23.70;11.07;;;16.70;99.90;;;;;;5048164;28;20026;-75
2023/10/13 03:14:23;;;;;;;20.92;11.20;;;16.80;99.90;;;;;;5031597;28;20010;-76
2023/10/13 03:17:08;;;;;;;23.63;11.35;;;16.70;99.90;;;;;;5030030;28;20060;-75
2023/10/13 03:19:39;;;;;;;21.25;11.52;;;16.70;99.90;;;;;;5031820;28;20014;-75
2023/10/13 03:24:33;;;;;;;21.20;10.70;;;16.70;99.90;;;;;;5048578;28;20048;-75
2023/10/13 03:27:09;;;;;;;18.70;11.02;;;16.70;99.90;;;;;;5031497;28;20033;-75
2023/10/13 03:29:42;;;;;;;21.60;11.23;;;16.70;99.90;;;;;;5030605;28;20037;-75
2023/10/13 03:32:11;;;;;;;25.27;11.27;;;16.70;99.90;;;;;;5049772;28;20040;-76
2023/10/13 03:34:53;;;;;;;18.38;10.65;;;16.70;99.90;;;;;;5048136;28;20021;-75
2023/10/13 03:37:37;;;;;;;19.63;11.05;;;16.70;99.90;;;;;;5048883;28;21210;-76
2023/10/13 03:43:09;;;;;;;21.10;11.80;;;16.70;99.90;;;;;;5045396;28;20017;-75
2023/10/13 03:45:43;;;;;;;18.60;10.65;;;16.70;99.90;;;;;;5047587;28;20036;-75
2023/10/13 03:51:15;;;;;;;24.63;11.55;;;16.80;99.90;;;;;;5045808;28;20018;-75
2023/10/13 03:53:56;;;;;;;21.80;10.73;;;16.80;99.90;;;;;;5046679;28;20022;-76
2023/10/13 03:56:26;;;;;;;24.73;11.50;;;16.80;99.90;;;;;;5045559;28;20018;-75
2023/10/13 03:58:59;;;;;;;20.05;10.63;;;16.80;99.90;;;;;;5048847;28;20051;-75
2023/10/13 04:01:31;;;;;;;21.38;11.00;;;16.80;99.90;;;;;;5031347;28;20052;-75
2023/10/13 04:04:09;;;;;;;18.65;11.43;;;16.80;99.90;;;;;;5046183;28;20021;-75
2023/10/13 04:17:14;;;;;;;19.77;11.02;;;16.80;99.90;;;;;;5046345;28;20052;-76
2023/10/13 04:24:08;;;;;;;17.83;11.07;;;16.80;99.90;;;;;;5047071;28;20036;-75
2023/10/13 04:25:35;;;;;;;19.30;11.02;;;16.80;99.90;;;;;;5036288;28;20021;-74
2023/10/13 04:39:09;;;;;;;20.00;10.73;;;16.90;99.90;;;;;;5047832;28;20105;-75
2023/10/13 04:49:28;;;;;;;22.70;12.07;;;16.90;99.90;;;;;;5046935;28;20044;-75
2023/10/13 04:52:26;;;;;;;21.80;11.93;;;16.90;99.90;;;;;;5046999;28;20093;-75
2023/10/13 04:54:59;;;;;;;21.20;11.55;;;16.90;99.90;;;;;;5047773;28;20013;-75
2023/10/13 06:30:14;;;;;;;20.23;9.07;;;;;;;;;;5050602;28;20135;-76
2023/10/13 06:32:40;;;;;;;16.27;9.02;;;;;;;;;;5031036;28;20026;-76
2023/10/13 06:35:07;;;;;;;18.58;9.63;;;;;;;;;;5030878;28;20029;-80
2023/10/13 06:37:34;;;;;;;16.58;8.75;;;;;;;;;;5045424;28;20115;-79
2023/10/13 06:40:05;;;;;;;21.73;8.70;;;;;;;;;;5039836;28;20025;-81
2023/10/13 06:42:34;;;;;;;15.13;8.77;;;;;;;;;;5042031;28;20021;-76
2023/10/13 06:45:08;;;;;;;19.58;8.60;;;;;;;;;;5029941;28;20063;-79
2023/10/13 06:47:39;;;;;;;19.70;9.35;;;;;;;;;;5043868;28;20473;-77
2023/10/13 06:50:15;;;;;;;22.52;9.82;;;17.10;99.90;;;;;;5039099;28;20017;-79
2023/10/13 06:52:45;;;;;;;21.35;10.13;;;17.40;99.90;;;;;;5045750;28;20030;-77
2023/10/13 06:55:34;;;;;;;23.25;10.43;;;17.40;99.90;;;;;;5018392;28;20053;-80
2023/10/13 06:58:00;;;;;;;21.42;9.20;;;;;;;;;;5026246;28;20049;-82
2023/10/13 07:00:34;;;;;;;19.30;9.48;;;;;;;;;;5040532;28;20457;-79
2023/10/13 07:03:06;;;;;;;18.30;9.32;;;;;;;;;;5018833;28;20351;-83
2023/10/13 07:05:41;;;;;;;16.23;9.10;;;;;;;;;;5042049;28;20044;-76
2023/10/13 07:08:09;;;;;;;25.13;9.23;;;;;;;;;;5022799;28;20039;-81
2023/10/13 07:10:48;;;;;;;18.48;8.55;;;;;;;;;;5033943;28;20060;-77
2023/10/13 07:13:14;;;;;;;16.35;8.13;;;;;;;;;;5015655;28;20073;-81
2023/10/13 07:15:47;;;;;;;17.63;8.52;;;;;;;;;;5023676;28;20044;-83
2023/10/13 07:18:15;;;;;;;15.55;7.45;;;;;;;;;;5016084;28;20053;-82
2023/10/13 07:20:43;;;;;;;10.00;7.10;;;;;;;;;;5013319;28;20033;-80
2023/10/13 07:23:11;;;;;;;20.10;7.57;;;;;;;;;;5024694;28;20029;-85
2023/10/13 07:25:40;;;;;;;18.75;7.18;;;;;;;;;;5010253;28;20065;-83
2023/10/13 07:28:08;;;;;;;19.70;7.60;;;;;;;;;;5007105;28;20030;-81
2023/10/13 07:33:19;;;;;;;13.30;6.53;;;;;;;;;;5023340;28;20029;-87
2023/10/13 07:36:00;;;;;;;15.65;7.50;;;;;;;;;;5005254;28;20084;-80
2023/10/13 07:38:30;;;;;;;18.55;6.85;;;;;;;;;;5021880;28;20592;-85
2023/10/13 07:41:07;;;;;;;18.90;8.05;;;;;;;;;;5024212;28;20164;-80
2023/10/13 07:43:33;;;;;;;19.02;6.80;;;;;;;;;;5005961;28;20038;-85
2023/10/13 07:45:59;;;;;;;16.05;7.32;;;;;;;;;;5021599;28;20080;-84
2023/10/13 07:48:25;;;;;;;18.33;7.32;;;;;;;;;;5022922;28;20034;-83
2023/10/13 07:51:03;;;;;;;18.08;7.15;;;;;;;;;;5005336;28;20049;-85
2023/10/13 07:53:34;;;;;;;17.52;6.75;;;;;;;;;;5006042;28;20109;-87
2023/10/13 07:56:04;;;;;;;18.13;7.18;;;;;;;;;;5022232;28;20038;-88
2023/10/13 07:58:34;;;;;;;14.60;7.20;;;;;;;;;;5021405;28;20030;-83
2023/10/13 08:01:06;;;;;;;17.42;7.10;;;;;;;;;;5020790;28;20029;-87
2023/10/13 08:03:35;;;;;;;;;;;;;;;;;;5009581;28;20026;-86
2023/10/13 08:08:37;;;;;;;17.30;6.90;;;;;;;;;;5020254;28;20029;-81
2023/10/13 08:11:10;;;;;;;16.00;6.53;;;;;;;;;;5021826;28;20037;-87
2023/10/13 08:13:46;;;;;;;19.50;7.18;;;;;;;;;;5008714;28;20122;-83
2023/10/13 08:16:20;;;;;;;15.52;7.53;;;;;;;;;;5008756;28;20033;-87
2023/10/13 08:18:49;;;;;;;18.98;6.65;;;;;;;;;;5005696;28;20041;-86
2023/10/13 08:21:19;;;;;;;15.13;7.13;;;;;;;;;;5005970;28;20454;-86
2023/10/13 08:26:30;;;;;;;21.45;6.90;;;;;;;;;;5022752;28;20037;-80
2023/10/13 08:31:49;;;;;;;19.52;6.97;;;;;;;;;;5021990;28;20068;-85
2023/10/13 08:34:23;;;;;;;19.02;6.10;;;;;;;;;;5018745;28;20412;-86
2023/10/13 08:36:49;;;;;;;15.65;6.65;;;;;;;;;;5004896;28;20048;-87
2023/10/13 08:42:23;;;;;;;22.80;6.70;;;;;;;;;;5019315;28;20048;-84
2023/10/13 08:44:51;;;;;;;16.20;6.18;;;;;;;;;;5019252;28;20775;-88
2023/10/13 08:47:21;;;;;;;16.38;6.60;;;;;;;;;;5010566;28;20141;-85
2023/10/13 08:49:50;;;;;;;15.18;6.07;;;;;;;;;;5015026;28;21564;-86
2023/10/13 08:55:13;;;;;;;15.93;6.70;;;;;;;;;;5024127;28;20052;-85
2023/10/13 08:57:40;;;;;;;25.35;6.70;;;;;;;;;;5023987;28;20137;-84
2023/10/13 09:00:28;;;;;;;21.77;6.38;;;;;;;;;;5014147;28;20033;-88
2023/10/13 09:03:28;;;;;;;16.88;6.03;;;;;;;;;;5024173;28;20045;-80
2023/10/13 09:06:06;;;;;;;18.05;7.30;;;;;;;;;;5023700;28;20049;-82
2023/10/13 09:08:35;;;;;;;19.65;6.70;;;;;;;;;;5027848;28;20021;-88
2023/10/13 09:11:12;;;;;;;15.35;5.70;;;;;;;;;;5013315;28;20425;-85
2023/10/13 09:13:43;;;;;;;14.93;5.75;;;;;;;;;;5023428;28;20099;-86
2023/10/13 09:16:16;;;;;;;19.42;6.25;;;;;;;;;;5023279;28;20030;-89
2023/10/13 09:18:52;;;;;;;16.45;5.95;;;;;;;;;;5025090;28;20029;-88
2023/10/13 09:24:51;;;;;;;17.25;6.00;;;;;;;;;;5022423;28;20156;-84
2023/10/13 09:26:53;;;;;;;13.20;6.05;;;;;;;;;;5007866;28;20038;-84
2023/10/13 09:29:19;;;;;;;13.00;5.90;;;;;;;;;;5022623;28;21854;-89
2023/10/13 09:31:51;;;;;;;10.85;5.18;;;;;;;;;;5023081;28;20818;-88
2023/10/13 09:34:21;;;;;;;16.23;5.72;;;;;;;;;;5023819;28;20033;-86
2023/10/13 09:36:47;;;;;;;10.60;4.93;;;;;;;;;;5023386;28;20032;-84
2023/10/13 09:39:29;;;;;;;21.02;6.53;;;;;;;;;;5006591;28;20868;-84
2023/10/13 09:41:56;;;;;;;15.93;6.80;;;;;;;;;;5023977;28;20037;-88
2023/10/13 09:44:22;;;;;;;15.65;6.15;;;;;;;;;;5007424;28;20113;-89
2023/10/13 09:46:52;;;;;;;16.13;5.65;;;;;;;;;;5024492;28;20040;-86
2023/10/13 09:49:44;;;;;;;13.27;6.40;;;;;;;;;;5006211;28;20163;-84
2023/10/13 09:52:10;;;;;;;13.68;6.15;;;;;;;;;;5020377;28;20029;-90
2023/10/13 09:54:41;;;;;;;13.00;5.53;;;;;;;;;;5021234;28;20053;-85
2023/10/13 09:57:12;;;;;;;10.90;5.78;;;;;;;;;;5006910;28;20429;-89
2023/10/13 09:59:52;;;;;;;11.82;5.97;;;;;;;;;;5022529;28;20064;-88
2023/10/13 10:02:24;;;;;;;13.32;5.47;;;;;;;;;;5009684;28;20508;-85
2023/10/13 10:04:55;;;;;;;11.93;5.85;;;;;;;;;;5017585;28;20117;-89
2023/10/13 10:07:28;;;;;;;11.05;6.22;;;;;;;;;;5023007;28;20117;-83
2023/10/13 10:09:58;;;;;;;11.88;5.38;;;;;;;;;;5005007;28;20033;-88
2023/10/13 10:12:39;;;;;;;21.67;6.20;;;;;;;;;;5008656;28;20469;-84
2023/10/13 10:15:28;;;;;;;14.18;5.97;;;;;;;;;;5020027;28;20030;-87
2023/10/13 10:17:54;;;;;;;12.23;6.28;;;;;;;;;;5021780;28;20025;-88
2023/10/13 10:20:33;;;;;;;13.60;5.65;;;;;;;;;;5021676;28;20034;-87
2023/10/13 10:22:59;;;;;;;18.35;5.45;;;;;;;;;;5005907;28;20455;-84
2023/10/13 10:25:35;;;;;;;10.95;5.72;;;;;;;;;;5009992;28;20029;-85
2023/10/13 10:28:06;;;;;;;12.38;5.95;;;;;;;;;;5005734;28;20057;-84
2023/10/13 10:30:33;;;;;;;16.15;6.97;;;;;;;;;;5021256;28;20037;-88
2023/10/13 10:33:00;;;;;;;20.45;6.72;;;;;;;;;;5022393;28;20083;-89
2023/10/13 10:35:32;;;;;;;15.73;5.47;;;;;;;;;;5020356;28;20037;-88
2023/10/13 10:38:28;;;;;;;10.73;5.57;;;;;;;;;;5021080;28;20033;-84
2023/10/13 10:40:57;;;;;;;15.05;6.32;;;;;;;;;;5005649;28;20041;-87
2023/10/13 10:43:42;;;;;;;16.95;6.63;;;;;;;;;;5020741;28;20033;-86
2023/10/13 10:46:18;;;;;;;19.30;5.03;;;;;;;;;;5004833;28;20037;-85
2023/10/13 10:48:45;;;;;;;17.55;6.07;;;;;;;;;;5019499;28;20033;-87
2023/10/13 10:53:47;;;;;;;17.58;5.68;;;;;;;;;;5022158;28;20034;-86
2023/10/13 10:56:22;;;;;;;10.48;5.38;;;;;;;;;;5020131;28;20163;-88
2023/10/13 10:58:54;;;;;;;15.52;6.15;;;;;;;;;;5009622;28;20029;-87
2023/10/13 11:01:23;;;;;;;14.75;5.70;;;;;;;;;;5020843;28;20026;-85
2023/10/13 11:03:59;;;;;;;14.40;5.95;;;;;;;;;;5005691;28;20044;-88
2023/10/13 11:06:26;;;;;;;13.00;6.18;;;;;;;;;;5020929;28;20030;-88
2023/10/13 11:11:52;;;;;;;11.98;5.45;;;;;;;;;;5022270;28;20068;-86
2023/10/13 11:14:26;;;;;;;9.52;5.20;;;;;;;;;;5009424;28;20033;-85
2023/10/13 11:16:59;;;;;;;13.63;5.13;;;;;;;;;;5020241;28;20044;-81
2023/10/13 11:19:35;;;;;;;14.93;5.55;;;;;;;;;;5007237;28;20021;-88
2023/10/13 11:22:10;;;;;;;13.85;5.82;;;;;;;;;;5023239;28;20026;-85
2023/10/13 11:24:40;;;;;;;14.88;5.20;;;;;;;;;;5019835;28;20030;-86
2023/10/13 11:27:16;;;;;;;14.93;5.55;;;;;;;;;;5023563;28;20048;-86
2023/10/13 11:29:42;;;;;;;11.07;5.13;;;;;;;;;;5004793;28;20044;-86
2023/10/13 11:32:08;;;;;;;17.60;5.18;;;;;;;;;;5009720;28;20119;-88
2023/10/13 11:34:40;;;;;;;14.95;5.15;;;;;;;;;;5002908;28;20049;-86
2023/10/13 11:37:28;;;;;;;;;;;;;;;;;;5004666;28;20033;-88
2023/10/13 11:39:52;;;;;;;10.23;5.10;;;;;;;;;;5021427;28;20300;-82
2023/10/13 11:42:18;;;;;;;14.05;5.28;;;;;;;;;;5020400;28;20030;-87
2023/10/13 11:44:44;;;;;;;15.48;5.70;;;;;;;;;;5019965;28;20022;-84
2023/10/13 11:47:46;;;;;;;19.35;6.40;;;;;;;;;;5004026;28;20465;-86
2023/10/13 11:50:05;;;;;;;16.20;5.15;;;;;;;;;;5019784;28;20129;-83
2023/10/13 11:52:31;;;;;;;15.02;5.72;;;;;;;;;;5020531;28;20034;-87
2023/10/13 11:54:57;;;;;;;14.80;4.78;;;;;;;;;;5020039;28;20112;-87
2023/10/13 11:57:24;;;;;;;11.77;4.53;;;;;;;;;;5020749;28;20044;-86
2023/10/13 11:59:53;;;;;;;12.35;4.90;;;;;;;;;;5019053;28;20030;-83
2023/10/13 12:04:51;;;;;;;16.40;4.95;;;;;;;;;;5021134;28;20029;-87
2023/10/13 12:07:45;;;;;;;14.35;4.50;;;;;;;;;;5007969;28;20052;-84
2023/10/13 12:10:32;;;;;;;13.57;4.22;;;;;;;;;;5004448;28;20048;-85
2023/10/13 12:13:05;;;;;;;15.68;4.63;;;;;;;;;;5020647;28;20143;-88
2023/10/13 12:15:36;;;;;;;14.63;4.82;;;;;;;;;;5021925;28;20140;-83
2023/10/13 12:18:03;;;;;;;15.85;4.63;;;;;;;;;;5005806;28;20045;-83
2023/10/13 12:20:32;;;;;;;14.00;4.10;;;;;;;;;;5003253;28;20036;-86
2023/10/13 12:23:09;;;;;;;20.17;6.25;;;;;;;;;;5020387;28;20473;-85
2023/10/13 12:25:44;;;;;;;13.55;4.35;;;;;;;;;;5023108;28;20034;-88
2023/10/13 12:28:18;;;;;;;15.00;4.95;;;;;;;;;;5019715;28;20033;-85
2023/10/13 12:30:48;;;;;;;16.25;4.70;;;;;;;;;;5019835;28;20049;-85
2023/10/13 12:33:23;;;;;;;12.13;5.05;;;;;;;;;;5002873;28;21607;-88
2023/10/13 12:36:03;;;;;;;21.65;5.47;;;;;;;;;;5017926;28;20034;-85
2023/10/13 12:52:16;;;;;;;19.48;4.95;;;;;;;;;;5020444;28;20076;-87
2023/10/13 12:54:47;;;;;;;12.88;4.85;;;;;;;;;;5020582;28;20026;-88
2023/10/13 12:57:15;;;;;;;15.00;4.75;;;;;;;;;;5008502;28;20058;-85
2023/10/13 12:59:41;;;;;;;17.88;4.88;;;;;;;;;;5019644;28;20362;-85
2023/10/13 13:02:14;;;;;;;16.98;4.95;;;;;;;;;;5004777;28;20087;-86
2023/10/13 13:04:43;;;;;;;11.93;4.53;;;;;;;;;;5020258;28;20044;-85
2023/10/13 13:07:13;;;;;;;12.27;4.55;;;;;;;;;;5019394;28;20021;-88
2023/10/13 13:09:39;;;;;;;14.77;5.25;;;;;;;;;;5019508;28;20034;-88
2023/10/13 13:12:06;;;;;;;14.00;4.25;;;;;;;;;;5023247;28;20025;-85
2023/10/13 13:14:35;;;;;;;12.18;4.65;;;;;;;;;;5002573;28;20532;-85
2023/10/13 13:17:04;;;;;;;10.45;4.22;;;;;;;;;;5020022;28;20036;-87
2023/10/13 13:19:38;;;;;;;13.05;4.53;;;;;;;;;;5019672;28;20027;-87
2023/10/13 13:22:05;;;;;;;11.00;5.07;;;;;;;;;;5022066;28;21000;-86
2023/10/13 13:24:31;;;;;;;21.40;4.90;;;;;;;;;;5019174;28;21632;-88
2023/10/13 13:27:02;;;;;;;10.70;3.88;;;;;;;;;;5019136;28;20037;-84
2023/10/13 13:29:29;;;;;;;19.13;5.10;;;;;;;;;;5003167;28;20111;-87
2023/10/13 13:31:55;;;;;;;17.98;4.95;;;;;;;;;;5020529;28;20049;-87
2023/10/13 13:34:21;;;;;;;15.60;4.75;;;;;;;;;;5003211;28;20461;-85
2023/10/13 13:36:52;;;;;;;16.45;4.45;;;;;;;;;;5019188;28;20034;-86
2023/10/13 13:39:28;;;;;;;16.17;4.45;;;;;;;;;;5018815;28;20038;-84
2023/10/13 13:41:56;;;;;;;17.23;4.88;;;;;;;;;;5005404;28;20378;-83
2023/10/13 13:44:28;;;;;;;16.65;5.18;;;;;;;;;;5022590;28;20447;-88
2023/10/13 13:46:56;;;;;;;19.40;5.38;;;;;;;;;;5020749;28;20050;-82
2023/10/13 13:49:29;;;;;;;15.45;5.07;;;;;;;;;;5022505;28;20077;-86
2023/10/13 13:51:55;;;;;;;17.35;4.70;;;;;;;;;;5023419;28;20026;-85
2023/10/13 13:54:21;;;;;;;18.60;5.07;;;;;;;;;;5023990;28;20034;-84
2023/10/13 13:56:50;;;;;;;21.25;5.15;;;;;;;;;;5024419;28;20040;-89
2023/10/13 13:59:19;;;;;;;29.63;5.78;;;;;;;;;;5023607;28;20121;-85
2023/10/13 14:01:45;;;;;;;19.63;4.88;;;;;;;;;;5022816;28;20026;-87
2023/10/13 14:04:17;;;;;;;22.73;5.13;;;;;;;;;;5022898;28;20565;-88
2023/10/13 14:06:44;;;;;;;14.00;4.38;;;;;;;;;;5023763;28;20044;-89
2023/10/13 14:09:32;;;;;;;18.42;4.72;;;;;;;;;;5005610;28;20044;-84
2023/10/13 14:14:55;;;;;;;13.02;4.90;;;;;;;;;;5024155;28;20350;-85
2023/10/13 14:17:35;;;;;;;14.02;4.53;;;;;;;;;;5022226;28;20690;-89
2023/10/13 14:20:09;;;;;;;17.08;5.70;;;;;;;;;;5018559;28;20029;-87
2023/10/13 14:22:37;;;;;;;15.32;4.80;;;;;;;;;;5022062;28;20022;-86
2023/10/13 14:25:08;;;;;;;19.48;5.00;;;;;;;;;;5021984;28;20022;-82
2023/10/13 14:27:35;;;;;;;16.52;4.10;;;;;;;;;;5015227;28;20536;-85
2023/10/13 14:30:01;;;;;;;17.83;4.60;;;;;;;;;;5021952;28;20049;-88
2023/10/13 14:32:29;;;;;;;18.17;4.93;;;;;;;;;;5010061;28;20036;-85
2023/10/13 14:35:00;;;;;;;20.20;4.95;;;;;;;;;;5005439;28;20116;-86
2023/10/13 14:37:30;;;;;;;20.05;5.40;;;;;;;;;;5021568;28;20037;-87
2023/10/13 14:39:56;;;;;;;22.15;4.60;;;;;;;;;;5019867;28;20030;-86
2023/10/13 14:42:23;;;;;;;18.95;5.15;;;;;;;;;;5007971;28;20021;-88
2023/10/13 14:44:55;;;;;;;16.77;4.40;;;;;;;;;;5022782;28;20026;-85
2023/10/13 14:47:24;;;;;;;11.80;5.13;;;;;;;;;;5012399;28;20026;-84
2023/10/13 14:49:50;;;;;;;17.33;4.32;;;;;;;;;;5024204;28;20041;-86
2023/10/13 14:52:17;;;;;;;15.77;4.13;;;;;;;;;;5012134;28;20742;-88
2023/10/13 14:54:46;;;;;;;22.63;4.25;;;;;;;;;;5004348;28;20057;-87
2023/10/13 14:57:14;;;;;;;10.80;4.03;;;;;;;;;;5022442;28;20034;-87
2023/10/13 14:59:44;;;;;;;11.23;3.83;;;;;;;;;;5011385;28;20120;-83
2023/10/13 15:02:10;;;;;;;23.35;5.55;;;;;;;;;;5022770;28;20119;-85
2023/10/13 15:04:36;;;;;;;12.68;4.00;;;;;;;;;;5025494;28;20069;-82
2023/10/13 15:07:06;;;;;;;11.85;3.88;;;;;;;;;;5021184;28;20033;-87
2023/10/13 15:09:32;;;;;;;11.70;4.88;;;;;;;;;;5012100;28;20022;-87
2023/10/13 15:11:58;;;;;;;14.77;4.53;;;;;;;;;;5006069;28;20030;-82
2023/10/13 15:14:24;;;;;;;8.63;4.35;;;;;;;;;;5021614;28;20014;-85
2023/10/13 15:16:52;;;;;;;12.77;4.32;;;;;;;;;;5021553;28;20037;-87
2023/10/13 15:19:18;;;;;;;17.48;4.78;;;;;;;;;;5023396;28;21584;-89
2023/10/13 15:21:49;;;;;;;22.38;3.97;;;;;;;;;;5020628;28;20033;-88
2023/10/13 15:24:16;;;;;;;14.40;3.70;;;;;;;;;;5023058;28;20060;-88
2023/10/13 15:26:49;;;;;;;11.80;4.38;;;;;;;;;;5009766;28;20068;-89
2023/10/13 15:29:24;;;;;;;16.92;4.53;;;;;;;;;;5009314;28;20037;-87
2023/10/13 15:34:28;;;;;;;15.40;5.00;;;;;;;;;;5021697;28;20026;-84
2023/10/13 15:36:55;;;;;;;10.93;3.83;;;;;;;;;;5004757;28;20052;-88
2023/10/13 15:39:28;;;;;;;11.30;3.75;;;;;;;;;;5008298;28;20105;-88
2023/10/13 15:41:58;;;;;;;12.60;4.10;;;;;;;;;;5005517;28;20109;-88
2023/10/13 15:44:24;;;;;;;13.40;3.83;;;;;;;;;;5019636;28;20026;-82
2023/10/13 15:46:55;;;;;;;12.82;3.80;;;;;;;;;;5004313;28;20030;-86
2023/10/13 15:49:21;;;;;;;11.43;4.10;;;;;;;;;;5020637;28;20022;-83
2023/10/13 15:51:47;;;;;;;12.48;3.88;;;;;;;;;;5004903;28;20041;-85
2023/10/13 15:54:16;;;;;;;12.20;4.60;;;;;;;;;;5021352;28;20033;-88
2023/10/13 15:56:46;;;;;;;14.57;4.57;;;;;;;;;;5008084;28;20450;-83
2023/10/13 15:59:14;;;;;;;13.68;4.55;;;;;;;;;;5018763;28;20135;-88
2023/10/13 16:01:40;;;;;;;13.10;4.00;;;;;;;;;;5020212;28;20033;-88
2023/10/13 16:04:18;;;;;;;10.05;3.95;;;;;;;;;;5007901;28;20441;-82
2023/10/13 16:06:50;;;;;;;16.02;4.22;;;;;;;;;;5021462;28;20040;-86
2023/10/13 16:09:23;;;;;;;10.05;4.15;;;;;;;;;;5006797;28;20035;-87
2023/10/13 16:11:49;;;;;;;10.30;3.97;;;;;;;;;;5018773;28;20033;-83
2023/10/13 16:14:18;;;;;;;13.40;4.13;;;;;;;;;;5019968;28;20043;-85
2023/10/13 16:16:46;;;;;;;11.93;4.32;;;;;;;;;;5018822;28;20086;-90
2023/10/13 16:19:12;;;;;;;11.35;4.40;;;;;;;;;;5020810;28;20044;-87
2023/10/13 16:21:39;;;;;;;9.30;3.50;;;;;;;;;;5019252;28;20033;-88
2023/10/13 16:24:05;;;;;;;12.40;3.75;;;;;;;;;;5002786;28;20052;-87
2023/10/13 16:26:34;;;;;;;7.88;3.97;;;;;;;;;;5002969;28;20053;-85
2023/10/13 16:29:03;;;;;;;9.88;4.30;;;;;;;;;;5018832;28;20238;-85
2023/10/13 16:31:29;;;;;;;11.20;4.32;;;;;;;;;;5017988;28;20470;-83
2023/10/13 16:34:01;;;;;;;10.52;4.25;;;;;;;;;;5018529;28;20053;-85
2023/10/13 16:36:27;;;;;;;11.70;4.28;;;;;;;;;;5020110;28;20051;-84
2023/10/13 16:38:57;;;;;;;15.25;4.10;;;;;;;;;;5008147;28;20025;-88
2023/10/13 16:41:24;;;;;;;10.82;4.15;;;;;;;;;;5018451;28;20105;-88
2023/10/13 16:43:50;;;;;;;10.05;3.38;;;;;;;;;;5020386;28;20467;-85
2023/10/13 16:46:17;;;;;;;8.77;3.97;;;;;;;;;;5020712;28;20090;-84
2023/10/13 16:48:48;;;;;;;12.55;4.15;;;;;;;;;;5021307;28;20430;-86
2023/10/13 16:51:14;;;;;;;15.18;5.18;;;;;;;;;;5005451;28;20116;-86
2023/10/13 16:53:49;;;;;;;12.80;4.05;;;;;;;;;;5004211;28;20086;-85
2023/10/13 16:56:15;;;;;;;15.00;4.63;;;;;;;;;;5002519;28;20545;-88
2023/10/13 16:58:44;;;;;;;16.38;4.07;;;;;;;;;;5008782;28;20034;-85
2023/10/13 17:01:13;;;;;;;20.80;5.30;;;;;;;;;;5021244;28;20104;-86
2023/10/13 17:03:40;;;;;;;13.07;5.03;;;;;;;;;;5001966;28;20118;-88
2023/10/13 17:06:08;;;;;;;5.68;3.65;;;;;;;;;;5019423;28;20026;-87
2023/10/13 17:08:37;;;;;;;11.90;4.75;;;;;;;;;;5003023;28;20037;-87
2023/10/13 17:11:13;;;;;;;12.20;4.25;;;;;;;;;;5018696;28;20044;-86
2023/10/13 17:13:40;;;;;;;11.15;4.00;;;;;;;;;;5002258;28;20042;-83
2023/10/13 17:16:17;;;;;;;14.02;4.53;;;;;;;;;;5005413;28;20503;-83